createdAt,value
2022-10-30T00:01:37.301Z,53.90
2022-10-30T00:04:40.656Z,55.60
2022-10-30T00:07:43.388Z,51.28
2022-10-30T00:10:46.949Z,56.53
2022-10-30T00:13:50.106Z,56.15
2022-10-30T00:16:54.325Z,50.47
2022-10-30T00:19:57.261Z,51.20
2022-10-30T00:23:01.431Z,52.38
2022-10-30T00:26:05.922Z,50.95
2022-10-30T00:29:08.844Z,45.53
2022-10-30T00:32:11.471Z,43.50
2022-10-30T00:35:14.525Z,52.40
2022-10-30T00:38:17.260Z,51.67
2022-10-30T00:41:23.014Z,53.87
2022-10-30T00:44:41.204Z,56.15
2022-10-30T00:47:48.510Z,44.28
2022-10-30T00:50:53.678Z,39.88
2022-10-30T00:53:58.792Z,48.80
2022-10-30T00:57:04.103Z,48.63
2022-10-30T01:00:10.931Z,47.78
2022-10-30T01:03:15.189Z,50.40
2022-10-30T01:06:19.504Z,50.38
2022-10-30T01:09:23.050Z,51.28
2022-10-30T01:12:26.114Z,50.95
2022-10-30T01:15:33.963Z,48.05
2022-10-30T01:18:59.343Z,43.75
2022-10-30T01:22:31.232Z,44.27
2022-10-30T01:25:57.183Z,48.60
2022-10-30T01:29:16.164Z,53.33
2022-10-30T01:32:31.238Z,49.33
2022-10-30T01:35:52.603Z,48.72
2022-10-30T01:38:59.714Z,49.88
2022-10-30T01:42:28.215Z,49.42
2022-10-30T01:46:02.711Z,53.85
2022-10-30T01:49:47.548Z,45.45
2022-10-30T01:53:08.290Z,47.28
2022-10-30T01:56:32.598Z,44.20
2022-10-30T01:59:45.893Z,50.77
2022-10-30T02:02:50.422Z,45.53
2022-10-30T02:05:55.229Z,42.75
2022-10-30T02:08:59.736Z,42.05
2022-10-30T02:12:03.362Z,42.55
2022-10-30T02:15:07.616Z,40.75
2022-10-30T02:18:11.782Z,44.80
2022-10-30T02:21:15.840Z,40.03
2022-10-30T02:24:19.275Z,43.50
2022-10-30T02:27:22.432Z,44.50
2022-10-30T02:30:25.214Z,40.47
2022-10-30T02:33:29.047Z,38.58
2022-10-30T02:36:31.796Z,43.85
2022-10-30T02:39:34.898Z,46.15
2022-10-30T02:42:38.927Z,45.45
2022-10-30T02:45:41.976Z,51.22
2022-10-30T02:48:44.797Z,45.65
2022-10-30T02:51:49.689Z,44.00
2022-10-30T02:54:52.888Z,50.67
2022-10-30T02:57:56.011Z,44.92
2022-10-30T03:00:58.866Z,45.47
2022-10-30T03:04:02.086Z,43.92
2022-10-30T03:07:04.833Z,43.00
2022-10-30T03:10:09.256Z,38.97
2022-10-30T03:13:12.060Z,39.37
2022-10-30T03:16:20.528Z,43.58
2022-10-30T03:19:23.547Z,43.60
2022-10-30T03:22:27.975Z,40.95
2022-10-30T03:25:30.857Z,41.00
2022-10-30T03:28:35.439Z,41.47
2022-10-30T03:31:38.630Z,48.95
2022-10-30T03:34:42.942Z,46.95
2022-10-30T03:37:45.661Z,42.20
2022-10-30T03:40:48.935Z,39.63
2022-10-30T03:43:52.019Z,42.17
2022-10-30T03:46:55.312Z,40.45
2022-10-30T03:49:58.619Z,38.90
2022-10-30T03:53:03.479Z,40.20
2022-10-30T03:56:06.963Z,39.95
2022-10-30T03:59:10.061Z,38.17
2022-10-30T04:02:14.449Z,46.53
2022-10-30T04:05:20.123Z,41.97
2022-10-30T04:08:23.051Z,44.63
2022-10-30T04:11:27.205Z,41.42
2022-10-30T04:14:30.063Z,42.90
2022-10-30T04:17:33.409Z,42.97
2022-10-30T04:20:37.036Z,42.83
2022-10-30T04:23:40.087Z,43.35
2022-10-30T04:26:45.123Z,44.40
2022-10-30T04:29:48.157Z,49.53
2022-10-30T04:32:58.120Z,45.75
2022-10-30T04:36:01.588Z,47.70
2022-10-30T04:39:06.934Z,46.17
2022-10-30T04:42:10.483Z,49.38
2022-10-30T04:45:15.375Z,46.03
2022-10-30T04:48:19.199Z,41.17
2022-10-30T04:51:22.556Z,47.35
2022-10-30T04:54:26.089Z,44.35
2022-10-30T04:57:28.895Z,44.10
2022-10-30T05:00:32.281Z,42.90
2022-10-30T05:03:36.140Z,46.03
2022-10-30T05:06:39.781Z,43.42
2022-10-30T05:09:43.960Z,38.58
2022-10-30T05:12:48.173Z,43.45
2022-10-30T05:15:51.001Z,39.42
2022-10-30T05:18:54.659Z,39.97
2022-10-30T05:21:57.569Z,43.50
2022-10-30T05:25:00.620Z,39.80
2022-10-30T05:28:05.801Z,44.88
2022-10-30T05:31:10.695Z,43.15
2022-10-30T05:34:16.018Z,44.67
2022-10-30T05:37:19.601Z,44.05
2022-10-30T05:40:22.367Z,43.25
2022-10-30T05:43:25.559Z,37.80
2022-10-30T05:46:28.733Z,39.65
2022-10-30T05:49:32.217Z,38.90
2022-10-30T05:52:35.674Z,34.00
2022-10-30T05:55:40.554Z,32.30
2022-10-30T05:58:44.058Z,34.83
2022-10-30T06:01:48.445Z,35.00
2022-10-30T06:04:53.109Z,31.13
2022-10-30T06:07:56.776Z,31.20
2022-10-30T06:10:59.861Z,30.50
2022-10-30T06:14:02.821Z,32.08
2022-10-30T06:17:06.486Z,33.03
2022-10-30T06:20:10.542Z,34.03
2022-10-30T06:23:15.331Z,33.85
2022-10-30T06:26:18.489Z,31.83
2022-10-30T06:29:21.963Z,30.20
2022-10-30T06:32:25.025Z,33.70
2022-10-30T06:35:29.191Z,32.45
2022-10-30T06:38:32.038Z,28.90
2022-10-30T06:41:35.359Z,33.88
2022-10-30T06:44:38.207Z,24.15
2022-10-30T06:47:41.866Z,27.80
2022-10-30T06:50:44.875Z,29.12
2022-10-30T06:53:48.349Z,26.08
2022-10-30T06:56:53.807Z,26.75
2022-10-30T06:59:57.777Z,27.65
2022-10-30T07:03:02.435Z,27.40
2022-10-30T07:06:06.633Z,30.60
2022-10-30T07:09:10.413Z,28.00
2022-10-30T07:12:13.717Z,27.92
2022-10-30T07:15:16.479Z,25.15
2022-10-30T07:18:20.411Z,28.40
2022-10-30T07:21:26.584Z,30.77
2022-10-30T07:27:33.363Z,28.95
2022-10-30T07:30:36.755Z,30.90
2022-10-30T07:33:40.851Z,29.35
2022-10-30T07:36:45.067Z,29.17
2022-10-30T07:39:50.408Z,30.95
2022-10-30T07:42:57.967Z,30.52
2022-10-30T07:46:02.210Z,26.62
2022-10-30T07:49:07.289Z,30.37
2022-10-30T07:52:16.161Z,28.12
2022-10-30T07:55:21.210Z,26.12
2022-10-30T07:58:25.394Z,27.40
2022-10-30T08:01:29.890Z,32.70
2022-10-30T08:04:37.283Z,33.75
2022-10-30T08:07:41.081Z,27.95
2022-10-30T08:10:44.190Z,30.02
2022-10-30T08:13:47.790Z,27.52
2022-10-30T08:16:51.723Z,27.48
2022-10-30T08:19:55.516Z,33.30
2022-10-30T08:22:59.215Z,32.10
2022-10-30T08:26:02.218Z,30.80
2022-10-30T08:29:05.373Z,31.45
2022-10-30T08:32:08.206Z,32.90
2022-10-30T08:35:18.647Z,26.25
2022-10-30T08:38:22.733Z,29.85
2022-10-30T08:41:26.658Z,32.08
2022-10-30T08:44:29.718Z,31.15
2022-10-30T08:47:37.539Z,32.63
2022-10-30T08:50:40.666Z,29.65
2022-10-30T08:53:43.922Z,29.55
2022-10-30T08:56:47.720Z,33.85
2022-10-30T08:59:51.553Z,36.10
2022-10-30T09:02:56.910Z,32.90
2022-10-30T09:06:05.144Z,29.77
2022-10-30T09:09:08.824Z,37.60
2022-10-30T09:12:13.267Z,33.13
2022-10-30T09:15:16.515Z,28.73
2022-10-30T09:18:20.882Z,36.43
2022-10-30T09:21:25.333Z,32.60
2022-10-30T09:24:29.108Z,31.23
2022-10-30T09:27:40.487Z,29.80
2022-10-30T09:30:44.041Z,28.60
2022-10-30T09:33:47.847Z,30.42
2022-10-30T09:36:57.282Z,27.95
2022-10-30T09:40:00.150Z,31.45
2022-10-30T09:43:35.711Z,31.52
2022-10-30T09:46:38.438Z,30.73
2022-10-30T09:49:54.425Z,27.90
2022-10-30T09:53:08.003Z,28.55
2022-10-30T09:56:20.013Z,31.83
2022-10-30T09:59:31.837Z,26.15
2022-10-30T10:03:22.523Z,27.90
2022-10-30T10:06:28.788Z,27.75
2022-10-30T10:09:33.697Z,26.05
2022-10-30T10:12:45.163Z,29.40
2022-10-30T10:15:51.252Z,33.10
2022-10-30T10:19:12.478Z,26.42
2022-10-30T10:22:26.464Z,24.27
2022-10-30T10:25:31.309Z,25.25
2022-10-30T10:29:05.526Z,31.30
2022-10-30T10:32:43.724Z,30.45
2022-10-30T10:36:14.967Z,27.90
2022-10-30T10:39:36.190Z,27.75
2022-10-30T10:42:58.586Z,28.42
2022-10-30T10:46:19.439Z,24.35
2022-10-30T10:49:35.847Z,24.17
2022-10-30T10:53:07.431Z,21.40
2022-10-30T10:56:10.979Z,25.55
2022-10-30T10:59:15.138Z,31.40
2022-10-30T11:02:20.881Z,27.77
2022-10-30T11:05:36.466Z,24.55
2022-10-30T11:08:40.499Z,24.12
2022-10-30T11:11:45.627Z,27.43
2022-10-30T11:14:48.338Z,26.98
2022-10-30T11:18:02.720Z,24.20
2022-10-30T11:21:16.671Z,25.80
2022-10-30T11:24:32.039Z,24.33
2022-10-30T11:27:34.869Z,25.08
2022-10-30T11:30:37.865Z,22.52
2022-10-30T11:33:40.578Z,25.45
2022-10-30T11:36:53.397Z,25.33
2022-10-30T11:40:13.653Z,19.20
2022-10-30T11:43:22.335Z,19.85
2022-10-30T11:46:25.380Z,19.35
2022-10-30T11:49:51.285Z,19.48
2022-10-30T11:53:00.806Z,22.60
2022-10-30T11:56:06.430Z,19.62
2022-10-30T11:59:19.662Z,23.98
2022-10-30T12:02:28.338Z,23.50
2022-10-30T12:05:37.754Z,24.67
2022-10-30T12:08:40.653Z,26.77
2022-10-30T12:11:44.841Z,25.37
2022-10-30T12:14:47.741Z,24.73
2022-10-30T12:17:56.137Z,24.92
2022-10-30T12:20:59.685Z,23.80
2022-10-30T12:24:07.055Z,23.73
2022-10-30T12:27:19.600Z,25.40
2022-10-30T12:30:26.197Z,21.58
2022-10-30T12:34:04.364Z,21.12
2022-10-30T12:37:21.838Z,25.15
2022-10-30T12:40:31.414Z,23.60
2022-10-30T12:43:36.545Z,23.90
2022-10-30T12:46:54.262Z,25.40
2022-10-30T12:50:11.548Z,27.00
2022-10-30T12:53:22.386Z,23.10
2022-10-30T12:56:31.998Z,23.67
2022-10-30T12:59:59.780Z,23.70
2022-10-30T13:03:20.844Z,22.13
2022-10-30T13:06:29.259Z,19.02
2022-10-30T13:09:50.621Z,24.45
2022-10-30T13:12:59.100Z,23.05
2022-10-30T13:16:04.334Z,30.85
2022-10-30T13:19:11.650Z,26.83
2022-10-30T13:22:55.807Z,27.73
2022-10-30T13:26:11.957Z,28.08
2022-10-30T13:29:14.994Z,30.70
2022-10-30T13:32:32.743Z,29.87
2022-10-30T13:35:35.849Z,25.23
2022-10-30T13:38:57.707Z,28.42
2022-10-30T13:42:16.096Z,25.62
2022-10-30T13:45:34.046Z,25.30
2022-10-30T13:49:15.020Z,28.42
2022-10-30T13:52:22.643Z,24.55
2022-10-30T13:55:29.685Z,27.58
2022-10-30T13:58:41.776Z,27.08
2022-10-30T14:02:01.727Z,27.08
2022-10-30T14:05:14.998Z,24.87
2022-10-30T14:08:38.418Z,35.55
2022-10-30T14:11:41.521Z,58.50
2022-10-30T14:14:48.877Z,69.78
2022-10-30T14:18:23.326Z,36.05
2022-10-30T14:21:59.255Z,28.12
2022-10-30T14:25:13.011Z,23.98
2022-10-30T14:28:20.480Z,44.13
2022-10-30T14:31:35.095Z,30.90
2022-10-30T14:34:44.023Z,27.23
2022-10-30T14:37:46.958Z,24.75
2022-10-30T14:41:03.177Z,27.17
2022-10-30T14:44:16.912Z,31.20
2022-10-30T14:47:44.550Z,27.83
2022-10-30T14:50:50.517Z,29.98
2022-10-30T14:54:00.779Z,30.83
2022-10-30T14:57:03.860Z,27.95
2022-10-30T15:00:22.497Z,27.52
2022-10-30T15:04:16.328Z,26.52
2022-10-30T15:07:41.794Z,30.33
2022-10-30T15:11:01.151Z,30.52
2022-10-30T15:14:21.058Z,32.17
2022-10-30T15:17:38.559Z,29.00
2022-10-30T15:20:41.396Z,29.23
2022-10-30T15:23:44.572Z,30.30
2022-10-30T15:26:55.757Z,30.95
2022-10-30T15:30:01.681Z,27.58
2022-10-30T15:33:16.419Z,25.62
2022-10-30T15:36:22.136Z,28.15
2022-10-30T15:39:25.287Z,32.45
2022-10-30T15:42:28.782Z,34.75
2022-10-30T15:45:36.950Z,25.67
2022-10-30T15:48:42.578Z,30.45
2022-10-30T15:51:46.662Z,34.45
2022-10-30T15:54:55.470Z,30.45
2022-10-30T15:58:12.937Z,29.25
2022-10-30T16:01:46.407Z,32.30
2022-10-30T16:04:50.412Z,32.63
2022-10-30T16:07:56.789Z,32.42
2022-10-30T16:11:00.001Z,32.85
2022-10-30T16:14:08.124Z,30.90
2022-10-30T16:17:11.936Z,29.08
2022-10-30T16:20:15.411Z,29.77
2022-10-30T16:23:20.299Z,30.30
2022-10-30T16:26:37.375Z,31.58
2022-10-30T16:29:40.989Z,34.10
2022-10-30T16:32:55.055Z,32.15
2022-10-30T16:35:58.910Z,32.03
2022-10-30T16:39:02.693Z,37.42
2022-10-30T16:42:06.085Z,35.10
2022-10-30T16:45:11.923Z,35.42
2022-10-30T16:48:30.629Z,34.65
2022-10-30T16:51:34.794Z,32.35
2022-10-30T16:54:40.402Z,31.83
2022-10-30T16:57:45.387Z,32.17
2022-10-30T17:00:52.037Z,31.37
2022-10-30T17:03:56.665Z,37.78
2022-10-30T17:07:06.624Z,33.63
2022-10-30T17:10:44.378Z,37.08
2022-10-30T17:14:00.694Z,33.67
2022-10-30T17:17:03.701Z,38.47
2022-10-30T17:20:21.839Z,33.27
2022-10-30T17:23:32.542Z,33.92
2022-10-30T17:26:39.781Z,33.63
2022-10-30T17:29:45.487Z,45.85
2022-10-30T17:32:57.680Z,35.95
2022-10-30T17:36:01.708Z,36.05
2022-10-30T17:39:07.402Z,44.38
2022-10-30T17:42:10.765Z,36.97
2022-10-30T17:45:14.828Z,34.30
2022-10-30T17:48:18.478Z,32.63
2022-10-30T17:51:23.159Z,33.97
2022-10-30T17:54:31.701Z,29.95
2022-10-30T17:57:34.900Z,35.42
2022-10-30T18:00:38.122Z,32.95
2022-10-30T18:03:42.774Z,32.85
2022-10-30T18:06:46.877Z,42.13
2022-10-30T18:09:50.486Z,37.33
2022-10-30T18:12:53.447Z,41.58
2022-10-30T18:15:58.716Z,34.80
2022-10-30T18:19:02.059Z,42.88
2022-10-30T18:22:06.505Z,33.23
2022-10-30T18:25:20.231Z,31.33
2022-10-30T18:28:25.165Z,34.23
2022-10-30T18:31:29.126Z,29.50
2022-10-30T18:34:47.696Z,35.38
2022-10-30T18:37:50.970Z,34.33
2022-10-30T18:40:54.567Z,31.52
2022-10-30T18:43:59.615Z,30.10
2022-10-30T18:47:05.647Z,29.93
2022-10-30T18:50:10.398Z,32.78
2022-10-30T18:53:18.406Z,31.75
2022-10-30T18:56:24.302Z,28.80
2022-10-30T18:59:27.932Z,30.67
2022-10-30T19:02:31.434Z,29.45
2022-10-30T19:05:39.642Z,35.88
2022-10-30T19:08:44.028Z,31.75
2022-10-30T19:11:47.609Z,37.67
2022-10-30T19:14:51.333Z,34.78
2022-10-30T19:17:56.841Z,32.70
2022-10-30T19:21:05.060Z,30.55
2022-10-30T19:24:14.247Z,34.30
2022-10-30T19:27:18.283Z,40.90
2022-10-30T19:30:24.371Z,41.90
2022-10-30T19:33:29.219Z,39.70
2022-10-30T19:36:37.490Z,39.20
2022-10-30T19:39:41.570Z,39.85
2022-10-30T19:42:46.126Z,41.97
2022-10-30T19:45:54.412Z,40.47
2022-10-30T19:49:00.233Z,46.00
2022-10-30T19:52:05.690Z,41.58
2022-10-30T19:55:10.448Z,41.60
2022-10-30T19:58:16.078Z,40.75
2022-10-30T20:01:20.360Z,41.35
2022-10-30T20:04:25.257Z,38.33
2022-10-30T20:07:28.199Z,40.53
2022-10-30T20:10:39.897Z,40.72
2022-10-30T20:13:43.719Z,43.75
2022-10-30T20:16:48.383Z,39.17
2022-10-30T20:19:51.500Z,38.45
2022-10-30T20:22:55.759Z,37.38
2022-10-30T20:26:01.668Z,40.12
2022-10-30T20:29:07.045Z,33.05
2022-10-30T20:32:10.446Z,37.67
2022-10-30T20:35:14.410Z,38.97
2022-10-30T20:38:38.094Z,38.90
2022-10-30T20:41:42.823Z,34.05
2022-10-30T20:44:45.955Z,29.55
2022-10-30T20:47:50.108Z,38.92
2022-10-30T20:50:54.152Z,40.50
2022-10-30T20:53:57.528Z,35.77
2022-10-30T20:57:01.725Z,36.90
2022-10-30T21:00:07.759Z,36.97
2022-10-30T21:03:14.525Z,39.10
2022-10-30T21:06:18.061Z,32.08
2022-10-30T21:09:21.015Z,35.70
2022-10-30T21:12:25.625Z,36.92
2022-10-30T21:15:28.711Z,37.42
2022-10-30T21:18:32.948Z,32.47
2022-10-30T21:21:36.848Z,33.53
2022-10-30T21:24:40.135Z,32.22
2022-10-30T21:27:42.988Z,33.55
2022-10-30T21:30:46.065Z,32.85
2022-10-30T21:33:48.884Z,28.30
2022-10-30T21:36:51.915Z,28.20
2022-10-30T21:39:54.596Z,28.77
2022-10-30T21:43:01.328Z,26.98
2022-10-30T21:46:08.458Z,24.42
2022-10-30T21:49:13.396Z,28.62
2022-10-30T21:52:16.174Z,28.08
2022-10-30T21:55:19.162Z,23.27
2022-10-30T21:58:22.920Z,27.58
2022-10-30T22:01:30.700Z,25.37
2022-10-30T22:04:34.865Z,26.52
2022-10-30T22:07:37.640Z,23.92
2022-10-30T22:10:40.917Z,24.20
2022-10-30T22:13:44.108Z,25.90
2022-10-30T22:16:48.536Z,22.75
2022-10-30T22:19:51.228Z,26.62
2022-10-30T22:22:54.657Z,25.92
2022-10-30T22:25:59.938Z,25.73
2022-10-30T22:29:02.750Z,24.08
2022-10-30T22:32:05.413Z,23.70
2022-10-30T22:35:08.679Z,22.45
2022-10-30T22:38:11.670Z,23.70
2022-10-30T22:41:20.023Z,26.77
2022-10-30T22:44:23.945Z,26.33
2022-10-30T22:47:27.016Z,26.30
2022-10-30T22:50:29.797Z,25.33
2022-10-30T22:53:33.528Z,26.62
2022-10-30T22:56:38.378Z,26.45
2022-10-30T23:02:45.104Z,24.12
2022-10-30T23:05:59.598Z,26.40
2022-10-30T23:09:07.186Z,27.57
2022-10-30T23:12:10.324Z,23.42
2022-10-30T23:15:13.117Z,26.75
2022-10-30T23:18:16.473Z,23.58
2022-10-30T23:21:23.585Z,23.98
2022-10-30T23:24:26.957Z,25.00
2022-10-30T23:27:30.083Z,25.67
2022-10-30T23:30:33.325Z,23.48
2022-10-30T23:33:35.932Z,28.60
2022-10-30T23:36:39.187Z,26.52
2022-10-30T23:39:41.882Z,37.35
2022-10-30T23:42:44.858Z,28.60
2022-10-30T23:45:47.339Z,29.08
2022-10-30T23:48:50.374Z,28.25
2022-10-30T23:51:53.227Z,36.03
2022-10-30T23:54:56.269Z,29.63
2022-10-30T23:58:00.560Z,24.75
